Time;durP1;ratioP1;P1;durP2;ratioP2;P2;SDS_P1;SDS_P2;PMS_P1;PMS_P2;Temp;Humidity;BMP_temperature;BMP_pressure;BME280_temperature;BME280_humidity;BME280_pressure;Samples;Min_cycle;Max_cycle;Signal;HPM_P1;HPM_P2
2024/01/03 00:01:57;;;;;;;12.05;2.05;;;;;;;;;;4796538;29;20468;-73
2024/01/03 00:04:25;;;;;;;16.17;3.20;;;;;;;;;;4795869;29;20059;-74
2024/01/03 00:06:51;;;;;;;11.60;1.80;;;;;;;;;;4798921;29;20880;-74
2024/01/03 00:09:18;;;;;;;16.50;2.40;;;;;;;;;;4801973;29;20055;-73
2024/01/03 00:11:45;;;;;;;18.17;2.58;;;;;;;;;;4784314;29;20062;-75
2024/01/03 00:14:21;;;;;;;17.75;2.47;;;;;;;;;;4791215;29;20051;-74
2024/01/03 00:16:48;;;;;;;10.50;2.08;;;;;;;;;;4794512;29;21002;-73
2024/01/03 00:19:15;;;;;;;13.10;1.98;;;;;;;;;;4816171;29;20050;-73
2024/01/03 00:21:43;;;;;;;16.92;2.70;;;;;;;;;;4796452;29;20051;-73
2024/01/03 00:24:10;;;;;;;16.08;2.78;;;;;;;;;;4793298;29;20062;-73
2024/01/03 00:26:39;;;;;;;9.85;1.85;;;;;;;;;;4800703;29;20393;-78
2024/01/03 00:29:18;;;;;;;14.98;2.35;;;;;;;;;;4785695;29;20051;-73
2024/01/03 00:31:44;;;;;;;16.98;3.08;;;;;;;;;;4814481;29;20770;-74
2024/01/03 00:34:28;;;;;;;17.17;2.97;;;;;;;;;;4784596;29;20131;-76
2024/01/03 00:36:55;;;;;;;13.05;2.47;;;;;;;;;;4812882;29;20423;-75
2024/01/03 00:39:22;;;;;;;11.93;1.88;;;;;;;;;;4814041;29;20131;-75
2024/01/03 00:41:51;;;;;;;12.98;2.17;;;;;;;;;;4790977;29;20046;-75
2024/01/03 00:44:23;;;;;;;14.27;2.33;;;;;;;;;;4815967;29;20476;-79
2024/01/03 00:46:50;;;;;;;14.23;2.78;;;;;;;;;;4796077;29;20423;-76
2024/01/03 00:49:17;;;;;;;10.63;2.10;;;;;;;;;;4797990;29;20079;-76
2024/01/03 00:51:50;;;;;;;11.18;2.20;;;;;;;;;;4787570;29;20445;-77
2024/01/03 00:54:19;;;;;;;12.57;2.70;;;;;;;;;;4798615;29;20514;-76
2024/01/03 00:56:46;;;;;;;14.13;3.13;;;;;;;;;;4797638;29;20580;-78
2024/01/03 00:59:13;;;;;;;10.40;2.42;;;;;;;;;;4794153;29;20137;-75
2024/01/03 01:01:40;;;;;;;13.77;2.47;;;;;;;;;;4807536;29;20066;-77
2024/01/03 01:04:17;;;;;;;15.32;3.30;;;;;;;;;;4808434;29;20064;-75
2024/01/03 01:06:44;;;;;;;18.73;4.20;;;;;;;;;;4815673;29;20433;-78
2024/01/03 01:09:13;;;;;;;13.52;2.70;;;;;;;;;;4797609;29;20149;-76
2024/01/03 01:11:43;;;;;;;15.32;2.10;;;;;;;;;;4808657;29;20086;-79
2024/01/03 01:14:09;;;;;;;16.77;2.95;;;;;;;;;;4799936;29;20058;-76
2024/01/03 01:16:39;;;;;;;15.45;2.15;;;;;;;;;;4795765;29;20051;-78
2024/01/03 01:19:06;;;;;;;8.45;2.55;;;;;;;;;;4814449;29;20677;-77
2024/01/03 01:21:40;;;;;;;16.83;2.72;;;;;;;;;;4816171;29;20067;-77
2024/01/03 01:24:09;;;;;;;21.30;3.80;;;;;;;;;;4800175;29;20054;-77
2024/01/03 01:26:36;;;;;;;13.15;2.80;;;;;;;;;;4805394;29;20051;-75
2024/01/03 01:29:06;;;;;;;13.30;2.72;;;;;;;;;;4798807;29;20135;-76
2024/01/03 01:31:33;;;;;;;12.98;2.63;;;;;;;;;;4808908;29;20104;-73
2024/01/03 01:34:10;;;;;;;18.73;2.70;;;;;;;;;;4791682;29;20050;-81
2024/01/03 01:36:37;;;;;;;14.93;2.50;;;;;;;;;;4798690;29;20058;-80
2024/01/03 01:39:04;;;;;;;16.88;2.83;;;;;;;;;;4798739;29;20058;-82
2024/01/03 01:41:33;;;;;;;14.77;2.53;;;;;;;;;;4812255;29;20051;-82
2024/01/03 01:43:59;;;;;;;18.42;3.42;;;;;;;;;;4798440;29;20496;-80
2024/01/03 01:46:26;;;;;;;22.05;3.20;;;;;;;;;;4777096;29;20897;-81
2024/01/03 01:48:53;;;;;;;15.48;2.88;;;;;;;;;;4797623;29;20188;-83
2024/01/03 01:51:27;;;;;;;18.20;3.13;;;;;;;;;;4783891;29;20053;-85
2024/01/03 01:53:58;;;;;;;18.77;3.22;;;;;;;;;;4803713;29;20253;-80
2024/01/03 01:56:35;;;;;;;24.35;3.85;;;;;;;;;;4799857;29;20058;-82
2024/01/03 01:59:01;;;;;;;17.73;3.00;;;;;;;;;;4787202;29;20062;-84
2024/01/03 02:01:29;;;;;;;18.63;3.22;;;;;;;;;;4788196;29;20410;-80
2024/01/03 02:03:55;;;;;;;14.82;2.97;;;;;;;;;;4779813;29;20887;-81
2024/01/03 02:06:22;;;;;;;19.27;2.80;;;;;;;;;;4789822;29;20055;-81
2024/01/03 02:08:50;;;;;;;21.15;2.78;;;;;;;;;;4804904;29;20116;-82
2024/01/03 02:11:17;;;;;;;17.95;2.83;;;;;;;;;;4799059;29;20147;-79
2024/01/03 02:13:44;;;;;;;19.77;2.83;;;;;;;;;;4805133;29;20055;-78
2024/01/03 02:16:10;;;;;;;15.98;2.65;;;;;;;;;;4789743;29;20485;-80
2024/01/03 02:18:41;;;;;;;15.13;2.97;;;;;;;;;;4787405;29;20055;-79
2024/01/03 02:21:12;;;;;;;20.98;3.88;;;;;;;;;;4785877;29;20146;-79
2024/01/03 02:23:38;;;;;;;20.08;3.47;;;;;;;;;;4794243;29;20504;-78
2024/01/03 02:26:04;;;;;;;18.13;3.15;;;;;;;;;;4792754;29;20047;-78
2024/01/03 02:28:46;;;;;;;19.23;3.20;;;;;;;;;;4793035;29;20061;-78
2024/01/03 02:31:13;;;;;;;20.30;2.97;;;;;;;;;;4793051;29;20055;-78
2024/01/03 02:33:40;;;;;;;22.80;3.40;;;;;;;;;;4801587;29;20139;-78
2024/01/03 02:36:06;;;;;;;24.42;4.53;;;;;;;;;;4811408;29;20054;-79
2024/01/03 02:38:33;;;;;;;18.10;2.70;;;;;;;;;;4789587;29;20805;-78
2024/01/03 02:40:59;;;;;;;22.27;3.63;;;;;;;;;;4793834;29;20078;-79
2024/01/03 02:43:26;;;;;;;16.17;2.67;;;;;;;;;;4792364;29;20143;-78
2024/01/03 02:45:52;;;;;;;16.85;3.40;;;;;;;;;;4789372;29;21086;-79
2024/01/03 02:48:19;;;;;;;20.73;2.92;;;;;;;;;;4798436;29;20058;-77
2024/01/03 02:50:48;;;;;;;22.80;4.20;;;;;;;;;;4779001;29;20082;-77
2024/01/03 02:53:17;;;;;;;16.15;3.13;;;;;;;;;;4812580;29;20162;-78
2024/01/03 02:55:44;;;;;;;21.50;3.75;;;;;;;;;;4787581;29;20120;-78
2024/01/03 02:58:10;;;;;;;17.95;3.17;;;;;;;;;;4794588;29;20484;-77
2024/01/03 03:00:39;;;;;;;19.85;3.55;;;;;;;;;;4798936;29;20054;-74
2024/01/03 03:03:05;;;;;;;22.35;3.67;;;;;;;;;;4798740;29;20066;-75
2024/01/03 03:05:32;;;;;;;10.98;2.40;;;;;;;;;;4794644;29;20303;-75
2024/01/03 03:07:58;;;;;;;20.92;3.33;;;;;;;;;;4797364;29;20058;-77
2024/01/03 03:10:24;;;;;;;17.17;3.28;;;;;;;;;;4788973;29;20094;-76
2024/01/03 03:12:51;;;;;;;17.20;2.97;;;;;;;;;;4795154;29;20075;-75
2024/01/03 03:15:17;;;;;;;22.52;3.75;;;;;;;;;;4786378;29;20058;-71
2024/01/03 03:17:44;;;;;;;19.92;2.95;;;;;;;;;;4786679;29;20054;-70
2024/01/03 03:20:10;;;;;;;16.98;2.70;;;;;;;;;;4794459;29;20062;-71
2024/01/03 03:22:37;;;;;;;25.85;5.50;;;;;;;;;;4806988;29;20061;-70
2024/01/03 03:25:03;;;;;;;21.98;3.08;;;;;;;;;;4796253;29;20065;-73
2024/01/03 03:27:30;;;;;;;17.58;3.05;;;;;;;;;;4781663;29;20055;-71
2024/01/03 03:29:56;;;;;;;24.88;4.05;;;;;;;;;;4780827;29;20146;-70
2024/01/03 03:32:23;;;;;;;17.00;2.80;;;;;;;;;;4786998;29;20552;-72
2024/01/03 03:34:50;;;;;;;22.30;3.25;;;;;;;;;;4796286;29;20054;-71
2024/01/03 03:37:16;;;;;;;21.33;3.00;;;;;;;;;;4797573;29;20061;-70
2024/01/03 03:39:43;;;;;;;21.98;3.53;;;;;;;;;;4795601;29;20158;-71
2024/01/03 03:42:09;;;;;;;19.23;3.10;;;;;;;;;;4792463;29;20051;-71
2024/01/03 03:44:40;;;;;;;17.55;3.13;;;;;;;;;;4783440;29;20062;-73
2024/01/03 03:47:07;;;;;;;19.70;3.30;;;;;;;;;;4785189;29;20052;-71
2024/01/03 03:49:33;;;;;;;18.65;3.35;;;;;;;;;;4787255;29;20057;-71
2024/01/03 03:52:00;;;;;;;19.52;3.60;;;;;;;;;;4791742;29;20051;-73
2024/01/03 03:54:26;;;;;;;24.52;3.65;;;;;;;;;;4792556;29;20063;-72
2024/01/03 03:56:53;;;;;;;25.60;4.88;;;;;;;;;;4777929;29;20166;-71
2024/01/03 03:59:19;;;;;;;21.08;3.45;;;;;;;;;;4779449;29;20129;-71
2024/01/03 04:01:49;;;;;;;18.60;3.30;;;;;;;;;;4788627;29;20484;-72
2024/01/03 04:04:19;;;;;;;22.80;3.33;;;;;;;;;;4807262;29;20747;-71
2024/01/03 04:06:45;;;;;;;21.25;3.47;;;;;;;;;;4787539;29;20062;-71
2024/01/03 04:09:12;;;;;;;30.75;3.75;;;;;;;;;;4810715;29;20066;-72
2024/01/03 04:11:42;;;;;;;20.08;4.60;;;;;;;;;;4797196;29;20062;-71
2024/01/03 04:14:09;;;;;;;23.55;3.88;;;;;;;;;;4787716;29;20579;-71
2024/01/03 04:16:35;;;;;;;19.83;3.38;;;;;;;;;;4796882;29;20094;-71
2024/01/03 04:19:02;;;;;;;18.77;3.47;;;;;;;;;;4784096;29;20054;-72
2024/01/03 04:21:32;;;;;;;21.05;3.35;;;;;;;;;;4800368;29;20082;-71
2024/01/03 04:23:58;;;;;;;31.67;4.05;;;;;;;;;;4784833;29;20063;-71
2024/01/03 04:26:25;;;;;;;24.98;3.85;;;;;;;;;;4796791;29;20059;-70
2024/01/03 04:28:52;;;;;;;20.48;3.75;;;;;;;;;;4795209;29;20050;-71
2024/01/03 04:31:18;;;;;;;28.17;3.78;;;;;;;;;;4793205;29;20145;-71
2024/01/03 04:33:45;;;;;;;20.88;3.08;;;;;;;;;;4795097;29;20053;-71
2024/01/03 04:36:11;;;;;;;24.10;4.40;;;;;;;;;;4805268;29;20754;-72
2024/01/03 04:38:38;;;;;;;25.27;3.75;;;;;;;;;;4797776;29;20047;-73
2024/01/03 04:41:04;;;;;;;22.73;3.92;;;;;;;;;;4814002;29;20065;-70
2024/01/03 04:43:31;;;;;;;27.10;4.13;;;;;;;;;;4808355;29;20055;-72
2024/01/03 04:45:57;;;;;;;17.88;4.63;;;;;;;;;;4800637;29;20648;-70
2024/01/03 04:48:23;;;;;;;25.77;7.22;;;;;;;;;;4788008;29;20472;-72
2024/01/03 04:50:50;;;;;;;30.05;9.05;;;;;;;;;;4799546;29;20047;-71
2024/01/03 04:53:16;;;;;;;35.67;9.50;;;;;;;;;;4794169;29;20059;-71
2024/01/03 04:55:44;;;;;;;31.40;9.75;;;;;;;;;;4799316;29;20086;-72
2024/01/03 04:58:10;;;;;;;26.98;8.60;;;;;;;;;;4785305;29;20051;-72
2024/01/03 05:00:37;;;;;;;21.55;6.70;;;;;;;;;;4791216;29;20112;-73
2024/01/03 05:03:04;;;;;;;30.27;6.45;;;;;;;;;;4787832;29;20059;-72
2024/01/03 05:05:30;;;;;;;27.65;6.10;;;;;;;;;;4796527;29;20355;-71
2024/01/03 05:07:57;;;;;;;24.70;5.95;;;;;;;;;;4783246;29;20063;-70
2024/01/03 05:10:23;;;;;;;20.13;6.60;;;;;;;;;;4790995;29;20055;-71
2024/01/03 05:12:50;;;;;;;15.40;4.50;;;;;;;;;;4789151;29;20077;-72
2024/01/03 05:15:17;;;;;;;23.10;4.68;;;;;;;;;;4797387;29;20058;-71
2024/01/03 05:17:44;;;;;;;21.90;5.03;;;;;;;;;;4790580;29;20400;-72
2024/01/03 05:20:11;;;;;;;23.85;4.18;;;;;;;;;;4793047;29;20070;-71
2024/01/03 05:22:38;;;;;;;15.23;3.10;;;;;;;;;;4792117;29;20413;-71
2024/01/03 05:25:06;;;;;;;24.42;3.53;;;;;;;;;;4800073;29;20111;-71
2024/01/03 05:27:32;;;;;;;22.02;3.78;;;;;;;;;;4800581;29;20090;-71
2024/01/03 05:29:59;;;;;;;22.73;3.97;;;;;;;;;;4802757;29;20051;-71
2024/01/03 05:32:25;;;;;;;23.38;4.63;;;;;;;;;;4797869;29;20051;-70
2024/01/03 05:34:52;;;;;;;25.42;4.13;;;;;;;;;;4793284;29;20046;-72
2024/01/03 05:37:18;;;;;;;21.42;3.53;;;;;;;;;;4799892;29;20583;-71
2024/01/03 05:39:45;;;;;;;22.25;3.47;;;;;;;;;;4798385;29;20509;-69
2024/01/03 05:42:12;;;;;;;18.45;3.30;;;;;;;;;;4778782;29;20108;-73
2024/01/03 05:44:38;;;;;;;22.02;3.60;;;;;;;;;;4793287;29;20840;-72
2024/01/03 05:47:05;;;;;;;26.27;4.30;;;;;;;;;;4807332;29;20145;-71
2024/01/03 05:49:31;;;;;;;21.60;3.78;;;;;;;;;;4807719;29;20134;-72
2024/01/03 05:51:58;;;;;;;22.60;4.78;;;;;;;;;;4793790;29;20488;-72
2024/01/03 05:54:24;;;;;;;20.50;3.40;;;;;;;;;;4787823;29;20094;-71
2024/01/03 05:56:51;;;;;;;21.08;3.10;;;;;;;;;;4794650;29;20049;-70
2024/01/03 05:59:18;;;;;;;18.33;3.30;;;;;;;;;;4790990;29;20058;-71
2024/01/03 06:01:45;;;;;;;18.70;3.17;;;;;;;;;;4797323;29;20071;-71
2024/01/03 06:04:14;;;;;;;11.98;2.30;;;;;;;;;;4789008;29;20043;-71
2024/01/03 06:06:41;;;;;;;14.55;3.35;;;;;;;;;;4793938;29;20135;-71
2024/01/03 06:09:09;;;;;;;11.50;2.28;;;;;;;;;;4799018;29;20047;-73
2024/01/03 06:11:35;;;;;;;17.10;3.00;;;;;;;;;;4778379;29;20051;-70
2024/01/03 06:14:02;;;;;;;13.88;2.17;;;;;;;;;;4792562;29;20047;-71
2024/01/03 06:16:28;;;;;;;12.23;2.75;;;;;;;;;;4803240;29;20051;-70
2024/01/03 06:18:55;;;;;;;9.40;2.28;;;;;;;;;;4812613;29;20091;-70
2024/01/03 06:21:21;;;;;;;14.82;2.47;;;;;;;;;;4794415;29;20055;-70
2024/01/03 06:23:48;;;;;;;9.15;2.33;;;;;;;;;;4796344;29;20054;-72
2024/01/03 06:26:14;;;;;;;9.40;2.25;;;;;;;;;;4797457;29;20149;-71
2024/01/03 06:28:41;;;;;;;8.88;2.00;;;;;;;;;;4794034;29;20051;-70
2024/01/03 06:31:07;;;;;;;9.10;1.85;;;;;;;;;;4796661;29;20669;-71
2024/01/03 06:33:34;;;;;;;6.68;1.80;;;;;;;;;;4793950;29;20051;-71
2024/01/03 06:36:01;;;;;;;13.18;2.47;;;;;;;;;;4796340;29;20138;-71
2024/01/03 06:38:27;;;;;;;11.70;1.77;;;;;;;;;;4793266;29;20057;-70
2024/01/03 06:40:54;;;;;;;13.02;2.03;;;;;;;;;;4808562;29;20198;-70
2024/01/03 06:43:20;;;;;;;7.03;1.55;;;;;;;;;;4812699;29;20108;-71
2024/01/03 06:45:46;;;;;;;7.15;1.52;;;;;;;;;;4785367;29;20503;-71
2024/01/03 06:48:13;;;;;;;8.35;1.80;;;;;;;;;;4795723;29;20078;-70
2024/01/03 06:50:40;;;;;;;9.43;2.28;;;;;;;;;;4788708;29;20059;-71
2024/01/03 06:53:06;;;;;;;5.45;1.52;;;;;;;;;;4794767;29;20130;-71
2024/01/03 06:55:32;;;;;;;6.90;1.48;;;;;;;;;;4798544;29;20058;-72
2024/01/03 06:57:59;;;;;;;8.30;2.13;;;;;;;;;;4788767;29;20993;-71
2024/01/03 07:00:25;;;;;;;5.20;1.42;;;;;;;;;;4801796;29;20143;-70
2024/01/03 07:02:52;;;;;;;5.72;1.35;;;;;;;;;;4791759;29;20051;-71
2024/01/03 07:05:18;;;;;;;7.25;1.08;;;;;;;;;;4794511;29;20043;-71
2024/01/03 07:07:45;;;;;;;6.53;1.00;;;;;;;;;;4793531;29;20071;-70
2024/01/03 07:10:11;;;;;;;7.47;1.13;;;;;;;;;;4793270;29;20277;-69
2024/01/03 07:12:38;;;;;;;3.10;0.60;;;;;;;;;;4798020;29;20086;-70
2024/01/03 07:15:05;;;;;;;2.28;0.68;;;;;;;;;;4792568;29;20231;-71
2024/01/03 07:17:32;;;;;;;3.22;0.70;;;;;;;;;;4807442;29;20124;-71
2024/01/03 07:19:58;;;;;;;3.58;0.70;;;;;;;;;;4782791;29;20137;-69
2024/01/03 07:22:24;;;;;;;2.05;0.60;;;;;;;;;;4805988;29;20123;-71
2024/01/03 07:24:51;;;;;;;4.75;0.80;;;;;;;;;;4798159;29;20058;-71
2024/01/03 07:27:17;;;;;;;3.20;0.52;;;;;;;;;;4778451;29;20050;-71
2024/01/03 07:29:45;;;;;;;3.00;0.73;;;;;;;;;;4797727;29;20088;-71
2024/01/03 07:32:12;;;;;;;5.63;1.13;;;;;;;;;;4790787;29;20080;-72
2024/01/03 07:34:38;;;;;;;2.35;0.50;;;;;;;;;;4792482;29;20078;-70
2024/01/03 07:37:05;;;;;;;4.68;0.70;;;;;;;;;;4795089;29;20050;-70
2024/01/03 07:39:31;;;;;;;3.38;0.60;;;;;;;;;;4792805;29;20098;-71
2024/01/03 07:41:57;;;;;;;5.45;0.90;;;;;;;;;;4786469;29;20047;-70
2024/01/03 07:44:24;;;;;;;2.50;0.80;;;;;;;;;;4792014;29;20111;-69
2024/01/03 07:46:50;;;;;;;6.03;0.80;;;;;;;;;;4795109;29;20493;-69
2024/01/03 07:49:16;;;;;;;1.38;0.63;;;;;;;;;;4789148;29;20054;-71
2024/01/03 07:51:45;;;;;;;2.97;0.73;;;;;;;;;;4794905;29;20718;-70
2024/01/03 07:54:12;;;;;;;1.40;0.50;;;;;;;;;;4798028;29;20133;-71
2024/01/03 07:56:38;;;;;;;2.22;0.50;;;;;;;;;;4789656;29;20263;-69
2024/01/03 07:59:05;;;;;;;2.00;0.50;;;;;;;;;;4797634;29;20117;-70
2024/01/03 08:01:31;;;;;;;3.30;0.73;;;;;;;;;;4782221;29;20070;-70
2024/01/03 08:03:57;;;;;;;1.52;0.60;;;;;;;;;;4785452;29;20059;-71
2024/01/03 08:06:24;;;;;;;1.08;0.32;;;;;;;;;;4791483;29;20063;-70
2024/01/03 08:08:51;;;;;;;1.25;0.45;;;;;;;;;;4780105;29;20223;-72
2024/01/03 08:11:17;;;;;;;3.38;0.50;;;;;;;;;;4797320;29;20058;-70
2024/01/03 08:13:44;;;;;;;6.82;0.70;;;;;;;;;;4800035;29;20054;-70
2024/01/03 08:16:11;;;;;;;3.42;0.50;;;;;;;;;;4787318;29;20115;-70
2024/01/03 08:18:38;;;;;;;5.20;0.90;;;;;;;;;;4789756;29;20479;-71
2024/01/03 08:21:05;;;;;;;1.83;0.55;;;;;;;;;;4787212;29;20047;-69
2024/01/03 08:23:32;;;;;;;3.67;0.63;;;;;;;;;;4786604;29;20063;-71
2024/01/03 08:25:58;;;;;;;3.25;0.95;;;;;;;;;;4780193;29;20055;-70
2024/01/03 08:28:25;;;;;;;5.95;1.25;;;;;;;;;;4784005;29;20052;-73
2024/01/03 08:30:52;;;;;;;3.15;0.82;;;;;;;;;;4788813;29;20622;-69
2024/01/03 08:33:18;;;;;;;7.15;1.50;;;;;;;;;;4779589;29;20065;-70
2024/01/03 08:35:45;;;;;;;5.05;1.30;;;;;;;;;;4795960;29;20054;-71
2024/01/03 08:38:11;;;;;;;9.50;1.52;;;;;;;;;;4792393;29;20059;-71
2024/01/03 08:40:38;;;;;;;4.43;1.40;;;;;;;;;;4798105;29;20161;-71
2024/01/03 08:43:04;;;;;;;5.72;1.88;;;;;;;;;;4788553;29;20266;-71
2024/01/03 08:45:31;;;;;;;7.13;1.65;;;;;;;;;;4794195;29;20473;-70
2024/01/03 08:47:58;;;;;;;9.55;1.83;;;;;;;;;;4796888;29;20051;-71
2024/01/03 08:50:24;;;;;;;7.28;1.73;;;;;;;;;;4790367;29;20070;-71
2024/01/03 08:52:51;;;;;;;10.50;1.92;;;;;;;;;;4793113;29;20078;-71
2024/01/03 08:55:17;;;;;;;6.35;2.28;;;;;;;;;;4790243;29;20055;-71
2024/01/03 08:57:46;;;;;;;7.88;2.15;;;;;;;;;;4806198;29;20090;-70
2024/01/03 09:00:13;;;;;;;5.72;1.70;;;;;;;;;;4784677;29;20078;-71
2024/01/03 09:02:39;;;;;;;4.53;1.92;;;;;;;;;;4806100;29;20062;-70
2024/01/03 09:05:06;;;;;;;9.32;2.03;;;;;;;;;;4789969;29;20062;-73
2024/01/03 09:07:32;;;;;;;8.25;1.95;;;;;;;;;;4783212;29;20058;-71
2024/01/03 09:09:58;;;;;;;8.85;2.63;;;;;;;;;;4805025;29;20477;-70
2024/01/03 09:12:25;;;;;;;6.80;2.22;;;;;;;;;;4786361;29;20609;-71
2024/01/03 09:14:51;;;;;;;6.40;1.95;;;;;;;;;;4803766;29;20416;-72
2024/01/03 09:17:18;;;;;;;8.65;2.40;;;;;;;;;;4795241;29;21122;-73
2024/01/03 09:19:44;;;;;;;11.55;2.90;;;;;;;;;;4790865;29;20053;-74
2024/01/03 09:22:11;;;;;;;8.82;2.53;;;;;;;;;;4797456;29;20055;-73
2024/01/03 09:24:37;;;;;;;9.57;2.97;;;;;;;;;;4784481;29;20113;-75
2024/01/03 09:27:04;;;;;;;9.65;2.80;;;;;;;;;;4794089;29;20726;-76
2024/01/03 09:29:31;;;;;;;13.73;3.42;;;;;;;;;;4783876;29;20051;-74
2024/01/03 09:31:58;;;;;;;12.95;3.13;;;;;;;;;;4798571;29;20161;-74
2024/01/03 09:34:25;;;;;;;9.80;2.88;;;;;;;;;;4800416;29;20062;-75
2024/01/03 09:36:54;;;;;;;12.70;3.47;;;;;;;;;;4793013;29;20141;-76
2024/01/03 09:39:21;;;;;;;10.88;3.30;;;;;;;;;;4805993;29;20055;-75
2024/01/03 09:41:47;;;;;;;11.90;3.38;;;;;;;;;;4803380;29;20062;-74
2024/01/03 09:44:14;;;;;;;18.17;3.70;;;;;;;;;;4812613;29;20486;-74
2024/01/03 09:46:42;;;;;;;11.98;3.38;;;;;;;;;;4799217;29;20711;-75
2024/01/03 09:49:08;;;;;;;13.05;2.80;;;;;;;;;;4789148;29;20949;-75
2024/01/03 09:51:35;;;;;;;10.73;2.83;;;;;;;;;;4797815;29;20058;-76
2024/01/03 09:54:02;;;;;;;13.00;3.20;;;;;;;;;;4780533;29;20054;-76
2024/01/03 09:56:29;;;;;;;12.10;2.83;;;;;;;;;;4797854;29;20064;-75
2024/01/03 09:58:55;;;;;;;14.88;2.95;;;;;;;;;;4805902;29;20047;-74
2024/01/03 10:01:22;;;;;;;11.73;3.55;;;;;;;;;;4797308;29;20100;-74
2024/01/03 10:03:48;;;;;;;12.85;3.10;;;;;;;;;;4803467;29;20051;-75
2024/01/03 10:06:15;;;;;;;9.98;2.40;;;;;;;;;;4800992;29;20051;-76
2024/01/03 10:08:59;;;;;;;18.25;3.05;;;;;;;;;;4814265;29;20065;-76
2024/01/03 10:11:26;;;;;;;18.50;3.42;;;;;;;;;;4794979;29;20066;-75
2024/01/03 10:13:54;;;;;;;15.95;3.03;;;;;;;;;;4812403;29;20051;-76
2024/01/03 10:16:24;;;;;;;12.60;3.33;;;;;;;;;;4798454;29;20107;-75
2024/01/03 10:19:11;;;;;;;12.27;2.80;;;;;;;;;;4791021;29;20062;-74
2024/01/03 10:21:49;;;;;;;14.20;3.17;;;;;;;;;;4794756;29;20069;-74
2024/01/03 10:24:15;;;;;;;22.90;4.20;;;;;;;;;;4803517;29;20043;-75
2024/01/03 10:26:42;;;;;;;17.33;2.65;;;;;;;;;;4799216;29;20223;-75
2024/01/03 10:29:12;;;;;;;15.65;3.42;;;;;;;;;;4777661;29;20566;-74
2024/01/03 10:31:39;;;;;;;21.70;3.53;;;;;;;;;;4792435;29;20143;-75
2024/01/03 10:34:05;;;;;;;17.67;3.45;;;;;;;;;;4799787;29;20043;-76
2024/01/03 10:36:34;;;;;;;16.33;2.80;;;;;;;;;;4789629;29;20062;-76
2024/01/03 10:39:01;;;;;;;;;;;;;;;;;;4787537;29;20051;-79
2024/01/03 10:41:29;;;;;;;18.90;2.63;;;;;;;;;;4808573;29;19925;-75
2024/01/03 10:43:56;;;;;;;21.85;3.90;;;;;;;;;;4797487;29;20432;-78
2024/01/03 10:46:23;;;;;;;14.95;3.20;;;;;;;;;;4791478;29;20079;-77
2024/01/03 10:48:53;;;;;;;21.38;3.60;;;;;;;;;;4799878;29;20078;-78
2024/01/03 10:51:22;;;;;;;21.67;3.13;;;;;;;;;;4797867;29;20101;-78
2024/01/03 10:53:49;;;;;;;21.88;3.92;;;;;;;;;;4800888;29;20055;-78
2024/01/03 10:56:16;;;;;;;16.67;4.20;;;;;;;;;;4798086;29;20124;-77
2024/01/03 10:58:42;;;;;;;19.42;3.53;;;;;;;;;;4788989;29;20062;-78
2024/01/03 11:01:14;;;;;;;17.00;3.40;;;;;;;;;;4795882;29;20066;-78
2024/01/03 11:04:00;;;;;;;13.88;3.22;;;;;;;;;;4792617;29;20054;-77
2024/01/03 11:06:51;;;;;;;16.05;3.60;;;;;;;;;;4810003;29;20068;-78
2024/01/03 11:09:19;;;;;;;21.65;3.58;;;;;;;;;;4798801;29;20062;-77
2024/01/03 11:11:48;;;;;;;21.15;4.00;;;;;;;;;;4790432;29;20059;-76
2024/01/03 11:14:18;;;;;;;18.95;3.63;;;;;;;;;;4809074;29;20137;-76
2024/01/03 11:16:45;;;;;;;20.02;3.85;;;;;;;;;;4805193;29;20086;-77
2024/01/03 11:19:12;;;;;;;18.58;3.03;;;;;;;;;;4798623;29;20150;-76
2024/01/03 11:21:39;;;;;;;19.33;4.40;;;;;;;;;;4792837;29;20104;-72
2024/01/03 11:24:06;;;;;;;17.77;4.05;;;;;;;;;;4809558;29;20098;-73
2024/01/03 11:26:51;;;;;;;20.25;3.63;;;;;;;;;;4810975;29;20066;-73
2024/01/03 11:29:44;;;;;;;22.20;3.70;;;;;;;;;;4799482;29;20150;-73
2024/01/03 11:32:15;;;;;;;18.73;3.45;;;;;;;;;;4793041;29;20074;-72
2024/01/03 11:34:45;;;;;;;21.17;3.55;;;;;;;;;;4785390;29;20172;-73
2024/01/03 11:37:11;;;;;;;26.42;4.13;;;;;;;;;;4786878;29;20854;-73
2024/01/03 11:39:42;;;;;;;21.15;4.20;;;;;;;;;;4799627;29;20118;-74
2024/01/03 11:42:08;;;;;;;23.30;3.17;;;;;;;;;;4795361;29;20042;-72
2024/01/03 11:44:35;;;;;;;18.95;3.40;;;;;;;;;;4787501;29;20057;-73
2024/01/03 11:47:03;;;;;;;19.45;3.03;;;;;;;;;;4796182;29;20059;-72
2024/01/03 11:49:29;;;;;;;26.27;3.92;;;;;;;;;;4796071;29;20058;-72
2024/01/03 11:51:57;;;;;;;18.42;3.40;;;;;;;;;;4789183;29;20051;-72
2024/01/03 11:54:24;;;;;;;23.02;3.72;;;;;;;;;;4811212;29;20057;-73
2024/01/03 11:56:51;;;;;;;23.13;3.97;;;;;;;;;;4786721;29;20061;-72
2024/01/03 11:59:21;;;;;;;18.10;3.17;;;;;;;;;;4800530;29;20066;-73
2024/01/03 12:01:56;;;;;;;25.88;4.43;;;;;;;;;;4811488;29;20416;-73
2024/01/03 12:04:23;;;;;;;22.48;4.45;;;;;;;;;;4794718;29;20110;-72
2024/01/03 12:06:50;;;;;;;27.23;4.18;;;;;;;;;;4788280;29;20057;-72
2024/01/03 12:09:17;;;;;;;22.83;5.00;;;;;;;;;;4786614;29;20062;-72
2024/01/03 12:11:43;;;;;;;28.77;4.20;;;;;;;;;;4778010;29;20535;-73
2024/01/03 12:14:15;;;;;;;23.85;4.07;;;;;;;;;;4775808;29;21636;-72
2024/01/03 12:16:45;;;;;;;31.20;4.65;;;;;;;;;;4800819;29;20133;-72
2024/01/03 12:19:21;;;;;;;21.40;3.65;;;;;;;;;;4791319;29;20051;-76
2024/01/03 12:21:57;;;;;;;29.90;5.53;;;;;;;;;;4804958;29;20051;-71
2024/01/03 12:24:44;;;;;;;18.33;3.58;;;;;;;;;;4781808;29;20126;-72
2024/01/03 12:27:10;;;;;;;19.85;3.25;;;;;;;;;;4776151;29;20768;-73
2024/01/03 12:29:39;;;;;;;18.67;3.60;;;;;;;;;;4790476;29;20062;-74
2024/01/03 12:32:12;;;;;;;12.70;3.35;;;;;;;;;;4783400;29;20089;-74
2024/01/03 12:34:39;;;;;;;13.88;3.22;;;;;;;;;;4787151;29;20112;-73
2024/01/03 12:37:06;;;;;;;16.15;3.33;;;;;;;;;;4781770;29;20796;-75
2024/01/03 12:39:37;;;;;;;12.52;2.58;;;;;;;;;;4787289;29;20051;-74
2024/01/03 12:42:04;;;;;;;16.23;2.50;;;;;;;;;;4785981;29;20050;-76
2024/01/03 12:44:31;;;;;;;13.73;2.00;;;;;;;;;;4798031;29;20047;-75
2024/01/03 12:46:58;;;;;;;11.40;2.03;;;;;;;;;;4804400;29;20119;-75
2024/01/03 12:49:25;;;;;;;10.27;2.35;;;;;;;;;;4794332;29;20058;-76
2024/01/03 12:51:55;;;;;;;10.50;2.42;;;;;;;;;;4814620;29;20752;-76
2024/01/03 12:54:22;;;;;;;10.55;1.85;;;;;;;;;;4800648;29;20058;-76
2024/01/03 12:56:48;;;;;;;8.07;1.40;;;;;;;;;;4789770;29;20086;-76
2024/01/03 12:59:15;;;;;;;8.25;1.42;;;;;;;;;;4804619;29;20146;-76
2024/01/03 13:01:42;;;;;;;5.20;1.45;;;;;;;;;;4793520;29;20055;-76
2024/01/03 13:04:08;;;;;;;6.93;1.20;;;;;;;;;;4805149;29;20066;-78
2024/01/03 13:06:35;;;;;;;8.77;1.40;;;;;;;;;;4794833;29;20069;-75
2024/01/03 13:09:04;;;;;;;4.95;1.20;;;;;;;;;;4787692;29;20059;-75
2024/01/03 13:11:30;;;;;;;5.57;1.17;;;;;;;;;;4805638;29;20050;-74
2024/01/03 13:13:58;;;;;;;9.73;1.45;;;;;;;;;;4788394;29;20285;-76
2024/01/03 13:16:24;;;;;;;7.22;1.17;;;;;;;;;;4796929;29;20542;-73
2024/01/03 13:18:50;;;;;;;9.05;1.63;;;;;;;;;;4788823;29;20163;-75
2024/01/03 13:21:17;;;;;;;10.65;1.60;;;;;;;;;;4801214;29;20054;-77
2024/01/03 13:23:44;;;;;;;6.60;1.13;;;;;;;;;;4794929;29;20161;-76
2024/01/03 13:26:14;;;;;;;9.27;1.50;;;;;;;;;;4794307;29;20050;-73
2024/01/03 13:28:43;;;;;;;11.73;1.92;;;;;;;;;;4798147;29;20051;-76
2024/01/03 13:31:15;;;;;;;7.82;1.60;;;;;;;;;;4794550;29;20138;-75
2024/01/03 13:33:45;;;;;;;7.15;1.48;;;;;;;;;;4796309;29;20050;-76
2024/01/03 13:36:12;;;;;;;5.97;1.33;;;;;;;;;;4788347;29;20730;-78
2024/01/03 13:38:38;;;;;;;8.13;1.35;;;;;;;;;;4797452;29;20085;-76
2024/01/03 13:41:06;;;;;;;11.27;1.73;;;;;;;;;;4800056;29;20051;-76
2024/01/03 13:43:36;;;;;;;6.65;1.73;;;;;;;;;;4808405;29;20071;-76
2024/01/03 13:46:03;;;;;;;8.68;1.17;;;;;;;;;;4799861;29;20610;-76
2024/01/03 13:48:30;;;;;;;9.20;1.58;;;;;;;;;;4788388;29;20122;-76
2024/01/03 13:50:57;;;;;;;5.95;1.27;;;;;;;;;;4798410;29;20157;-75
2024/01/03 13:53:24;;;;;;;8.82;1.50;;;;;;;;;;4799658;29;20599;-75
2024/01/03 13:55:51;;;;;;;10.52;1.60;;;;;;;;;;4793867;29;20521;-75
2024/01/03 13:58:17;;;;;;;9.82;2.05;;;;;;;;;;4799050;29;20142;-75
2024/01/03 14:00:45;;;;;;;9.32;2.00;;;;;;;;;;4789865;29;20440;-75
2024/01/03 14:03:12;;;;;;;12.77;2.10;;;;;;;;;;4794852;29;20244;-74
2024/01/03 14:05:39;;;;;;;8.10;1.70;;;;;;;;;;4791417;29;20090;-75
2024/01/03 14:08:06;;;;;;;9.88;1.70;;;;;;;;;;4799228;29;20129;-74
2024/01/03 14:10:33;;;;;;;10.18;1.92;;;;;;;;;;4813164;29;20069;-75
2024/01/03 14:13:00;;;;;;;10.57;1.77;;;;;;;;;;4794873;29;20712;-75
2024/01/03 14:15:28;;;;;;;13.00;2.30;;;;;;;;;;4791608;29;20058;-74
2024/01/03 14:17:54;;;;;;;12.70;2.17;;;;;;;;;;4788678;29;20066;-74
2024/01/03 14:20:21;;;;;;;12.15;2.20;;;;;;;;;;4793608;29;20116;-75
2024/01/03 14:22:47;;;;;;;7.28;2.13;;;;;;;;;;4797042;29;20055;-76
2024/01/03 14:25:14;;;;;;;7.10;2.28;;;;;;;;;;4809744;29;20047;-75
2024/01/03 14:27:42;;;;;;;7.70;1.98;;;;;;;;;;4799069;29;20051;-74
2024/01/03 14:30:16;;;;;;;8.02;1.70;;;;;;;;;;4788638;29;20188;-73
2024/01/03 14:32:43;;;;;;;4.75;1.40;;;;;;;;;;4799718;29;20065;-75
2024/01/03 14:35:10;;;;;;;6.75;1.23;;;;;;;;;;4791455;29;20059;-75
2024/01/03 14:37:36;;;;;;;5.90;1.13;;;;;;;;;;4811826;29;20058;-76